createdAt,value
2023-08-11T00:01:05.459Z,15.82
2023-08-11T00:03:33.663Z,15.83
2023-08-11T00:06:01.073Z,15.80
2023-08-11T00:08:28.223Z,15.77
2023-08-11T00:10:55.937Z,15.70
2023-08-11T00:13:23.224Z,15.68
2023-08-11T00:15:50.431Z,15.68
2023-08-11T00:18:17.596Z,15.61
2023-08-11T00:20:46.281Z,15.54
2023-08-11T00:23:13.714Z,15.48
2023-08-11T00:25:40.844Z,15.39
2023-08-11T00:28:08.019Z,15.36
2023-08-11T00:30:35.289Z,15.42
2023-08-11T00:33:02.525Z,15.39
2023-08-11T00:35:29.718Z,15.41
2023-08-11T00:37:57.117Z,15.40
2023-08-11T00:40:24.930Z,15.32
2023-08-11T00:42:52.174Z,15.24
2023-08-11T00:45:19.658Z,15.20
2023-08-11T00:47:47.462Z,15.14
2023-08-11T00:50:17.237Z,15.11
2023-08-11T00:52:46.900Z,15.09
2023-08-11T00:55:14.550Z,15.06
2023-08-11T00:57:42.177Z,15.06
2023-08-11T01:00:14.041Z,15.06
2023-08-11T01:02:43.772Z,15.03
2023-08-11T01:05:13.210Z,14.99
2023-08-11T01:08:20.663Z,14.92
2023-08-11T01:10:53.390Z,14.90
2023-08-11T01:13:21.185Z,14.89
2023-08-11T01:15:59.963Z,14.89
2023-08-11T01:18:31.928Z,14.87
2023-08-11T01:21:09.677Z,14.83
2023-08-11T01:23:36.948Z,14.77
2023-08-11T01:26:04.953Z,14.68
2023-08-11T01:28:35.276Z,14.64
2023-08-11T01:31:02.438Z,14.55
2023-08-11T01:33:29.582Z,14.49
2023-08-11T01:35:56.720Z,14.36
2023-08-11T01:38:23.870Z,14.23
2023-08-11T01:40:51.622Z,14.17
2023-08-11T01:43:20.876Z,14.12
2023-08-11T01:45:50.850Z,13.98
2023-08-11T01:48:20.925Z,13.89
2023-08-11T01:50:48.446Z,13.90
2023-08-11T01:53:15.708Z,13.92
2023-08-11T01:55:44.120Z,13.80
2023-08-11T01:58:11.422Z,13.73
2023-08-11T02:00:38.561Z,13.74
2023-08-11T02:03:06.000Z,13.82
2023-08-11T02:05:33.268Z,13.85
2023-08-11T02:08:01.360Z,13.88
2023-08-11T02:10:30.437Z,13.94
2023-08-11T02:12:57.605Z,13.95
2023-08-11T02:15:24.943Z,13.92
2023-08-11T02:17:52.189Z,13.98
2023-08-11T02:20:23.295Z,14.00
2023-08-11T02:22:53.145Z,14.02
2023-08-11T02:25:23.189Z,13.99
2023-08-11T02:27:51.320Z,13.87
2023-08-11T02:30:19.663Z,13.99
2023-08-11T02:32:47.193Z,13.84
2023-08-11T02:35:18.377Z,13.75
2023-08-11T02:37:46.404Z,13.75
2023-08-11T02:40:13.956Z,13.74
2023-08-11T02:42:49.686Z,13.71
2023-08-11T02:45:16.962Z,13.66
2023-08-11T02:47:44.247Z,13.59
2023-08-11T02:50:11.963Z,13.63
2023-08-11T02:52:39.252Z,13.60
2023-08-11T02:55:08.803Z,13.53
2023-08-11T02:57:36.296Z,13.53
2023-08-11T03:00:11.062Z,13.51
2023-08-11T03:02:38.315Z,13.51
2023-08-11T03:05:08.321Z,13.45
2023-08-11T03:07:37.838Z,13.45
2023-08-11T03:10:05.259Z,13.43
2023-08-11T03:12:32.610Z,13.42
2023-08-11T03:15:00.039Z,13.42
2023-08-11T03:17:27.780Z,13.42
2023-08-11T03:19:54.900Z,13.44
2023-08-11T03:22:22.169Z,13.41
2023-08-11T03:24:50.352Z,13.36
2023-08-11T03:27:19.681Z,13.28
2023-08-11T03:29:46.972Z,13.23
2023-08-11T03:32:14.270Z,13.17
2023-08-11T03:34:42.619Z,13.15
2023-08-11T03:37:11.034Z,13.17
2023-08-11T03:39:38.235Z,13.18
2023-08-11T03:42:06.350Z,13.16
2023-08-11T03:44:34.003Z,13.17
2023-08-11T03:47:04.138Z,13.20
2023-08-11T03:49:32.553Z,13.21
2023-08-11T03:51:59.942Z,13.25
2023-08-11T03:54:35.815Z,13.31
2023-08-11T03:57:11.900Z,13.34
2023-08-11T03:59:39.066Z,13.38
2023-08-11T04:02:07.067Z,13.41
2023-08-11T04:04:34.380Z,13.48
2023-08-11T04:07:01.459Z,13.51
2023-08-11T04:09:30.382Z,13.52
2023-08-11T04:11:57.785Z,13.56
2023-08-11T04:14:25.620Z,13.60
2023-08-11T04:16:52.760Z,13.63
2023-08-11T04:19:19.903Z,13.67
2023-08-11T04:21:47.174Z,13.73
2023-08-11T04:24:16.429Z,13.77
2023-08-11T04:26:43.666Z,13.83
2023-08-11T04:29:11.013Z,13.87
2023-08-11T04:31:38.388Z,13.89
2023-08-11T04:34:07.445Z,13.91
2023-08-11T04:36:34.571Z,13.95
2023-08-11T04:39:01.922Z,13.95
2023-08-11T04:41:29.253Z,13.97
2023-08-11T04:43:56.481Z,14.05
2023-08-11T04:46:23.692Z,14.12
2023-08-11T04:48:51.000Z,14.11
2023-08-11T04:51:18.552Z,14.07
2023-08-11T04:53:45.718Z,14.10
2023-08-11T04:56:13.380Z,14.12
2023-08-11T04:58:40.548Z,14.18
2023-08-11T05:01:08.617Z,14.23
2023-08-11T05:03:35.894Z,14.23
2023-08-11T05:06:05.211Z,14.27
2023-08-11T05:08:34.249Z,14.29
2023-08-11T05:11:01.389Z,14.31
2023-08-11T05:13:28.512Z,14.34
2023-08-11T05:15:55.715Z,14.44
2023-08-11T05:18:23.483Z,14.43
2023-08-11T05:20:50.733Z,14.41
2023-08-11T05:23:17.881Z,14.43
2023-08-11T05:25:45.143Z,14.47
2023-08-11T05:28:12.283Z,14.46
2023-08-11T05:30:40.033Z,14.53
2023-08-11T05:33:07.213Z,14.61
2023-08-11T05:35:34.358Z,14.66
2023-08-11T05:38:02.573Z,14.72
2023-08-11T05:40:30.518Z,14.79
2023-08-11T05:42:57.841Z,14.87
2023-08-11T05:45:24.926Z,14.93
2023-08-11T05:47:52.076Z,14.97
2023-08-11T05:50:19.625Z,15.04
2023-08-11T05:52:46.874Z,15.06
2023-08-11T05:55:14.093Z,14.98
2023-08-11T05:57:41.245Z,14.93
2023-08-11T06:00:10.171Z,14.93
2023-08-11T06:02:43.793Z,15.01
2023-08-11T06:05:11.549Z,15.08
2023-08-11T06:07:41.114Z,15.01
2023-08-11T06:10:10.626Z,15.07
2023-08-11T06:12:37.779Z,15.15
2023-08-11T06:15:05.848Z,15.15
2023-08-11T06:17:33.205Z,15.30
2023-08-11T06:20:01.725Z,15.38
2023-08-11T06:22:28.884Z,15.47
2023-08-11T06:24:56.012Z,15.46
2023-08-11T06:27:23.203Z,15.49
2023-08-11T06:29:50.317Z,15.59
2023-08-11T06:32:17.482Z,15.64
2023-08-11T06:34:44.625Z,15.62
2023-08-11T06:37:11.767Z,15.66
2023-08-11T06:39:38.926Z,15.75
2023-08-11T06:42:06.157Z,15.79
2023-08-11T06:44:58.887Z,15.82
2023-08-11T06:47:26.111Z,15.81
2023-08-11T06:49:53.368Z,15.87
2023-08-11T06:52:20.577Z,15.91
2023-08-11T06:54:47.716Z,15.89
2023-08-11T06:57:15.248Z,15.95
2023-08-11T06:59:42.484Z,16.02
2023-08-11T07:02:09.695Z,16.10
2023-08-11T07:04:36.919Z,16.19
2023-08-11T07:07:04.128Z,16.36
2023-08-11T07:09:31.310Z,16.42
2023-08-11T07:11:58.483Z,16.53
2023-08-11T07:14:26.037Z,16.59
2023-08-11T07:16:53.372Z,16.62
2023-08-11T07:19:20.624Z,16.66
2023-08-11T07:21:47.829Z,16.75
2023-08-11T07:24:15.293Z,16.86
2023-08-11T07:26:42.818Z,16.90
2023-08-11T07:29:09.993Z,16.98
2023-08-11T07:31:37.198Z,16.98
2023-08-11T07:34:04.594Z,17.10
2023-08-11T07:36:31.728Z,17.16
2023-08-11T07:39:12.818Z,17.28
2023-08-11T07:41:46.038Z,17.39
2023-08-11T07:44:13.349Z,17.53
2023-08-11T07:46:40.615Z,17.69
2023-08-11T07:49:07.993Z,17.90
2023-08-11T07:51:35.160Z,17.79
2023-08-11T07:54:02.464Z,17.81
2023-08-11T07:56:29.659Z,17.77
2023-08-11T07:58:57.346Z,17.80
2023-08-11T08:01:25.054Z,17.92
2023-08-11T08:03:52.308Z,18.29
2023-08-11T08:06:19.812Z,18.40
2023-08-11T08:08:46.974Z,18.63
2023-08-11T08:11:14.233Z,18.89
2023-08-11T08:13:41.524Z,18.93
2023-08-11T08:16:08.716Z,19.04
2023-08-11T08:18:35.883Z,19.25
2023-08-11T08:21:03.403Z,19.25
2023-08-11T08:23:30.638Z,19.24
2023-08-11T08:25:57.904Z,19.37
2023-08-11T08:28:25.914Z,19.60
2023-08-11T08:30:53.314Z,19.73
2023-08-11T08:33:20.558Z,19.85
2023-08-11T08:35:47.935Z,19.96
2023-08-11T08:38:15.121Z,20.08
2023-08-11T08:40:42.438Z,20.06
2023-08-11T08:43:10.035Z,20.04
2023-08-11T08:45:38.235Z,20.16
2023-08-11T08:48:10.601Z,20.24
2023-08-11T08:50:39.238Z,20.24
2023-08-11T08:53:06.808Z,20.39
2023-08-11T08:55:34.656Z,20.29
2023-08-11T08:58:02.036Z,20.42
2023-08-11T09:02:58.092Z,20.53
2023-08-11T09:05:26.489Z,20.56
2023-08-11T09:07:53.901Z,20.65
2023-08-11T09:10:21.810Z,20.76
2023-08-11T09:12:49.556Z,20.94
2023-08-11T09:15:16.794Z,21.04
2023-08-11T09:17:44.036Z,21.11
2023-08-11T09:20:13.951Z,21.16
2023-08-11T09:22:41.616Z,21.13
2023-08-11T09:25:08.942Z,21.36
2023-08-11T09:27:36.139Z,21.30
2023-08-11T09:30:04.520Z,21.47
2023-08-11T09:32:34.934Z,21.57
2023-08-11T09:35:08.449Z,21.51
2023-08-11T09:37:36.202Z,21.53
2023-08-11T09:40:06.159Z,21.55
2023-08-11T09:42:33.861Z,21.41
2023-08-11T09:45:01.053Z,21.64
2023-08-11T09:47:30.100Z,21.72
2023-08-11T09:49:57.768Z,21.81
2023-08-11T09:52:25.294Z,21.93
2023-08-11T09:54:55.751Z,21.96
2023-08-11T09:57:24.538Z,21.96
2023-08-11T09:59:54.670Z,21.95
2023-08-11T10:02:25.904Z,22.00
2023-08-11T10:04:59.859Z,22.05
2023-08-11T10:07:35.435Z,22.21
2023-08-11T10:10:14.973Z,22.31
2023-08-11T10:12:48.500Z,22.22
2023-08-11T10:15:19.805Z,22.34
2023-08-11T10:17:47.328Z,22.28
2023-08-11T10:20:14.918Z,22.05
2023-08-11T10:22:42.492Z,22.06
2023-08-11T10:25:10.289Z,22.11
2023-08-11T10:27:40.210Z,22.31
2023-08-11T10:30:09.893Z,22.44
2023-08-11T10:32:37.073Z,22.50
2023-08-11T10:35:07.669Z,22.52
2023-08-11T10:37:35.302Z,22.44
2023-08-11T10:40:07.144Z,22.37
2023-08-11T10:42:37.384Z,22.27
2023-08-11T10:45:13.084Z,22.56
2023-08-11T10:47:56.232Z,22.77
2023-08-11T10:50:23.615Z,22.81
2023-08-11T10:53:06.661Z,22.83
2023-08-11T10:55:37.530Z,22.86
2023-08-11T10:58:17.784Z,22.89
2023-08-11T11:00:45.098Z,22.88
2023-08-11T11:03:13.535Z,22.95
2023-08-11T11:05:43.584Z,22.87
2023-08-11T11:08:11.419Z,22.62
2023-08-11T11:10:49.261Z,22.55
2023-08-11T11:13:17.620Z,22.75
2023-08-11T11:15:44.914Z,22.88
2023-08-11T11:18:12.525Z,22.90
2023-08-11T11:20:39.692Z,22.97
2023-08-11T11:23:06.968Z,23.12
2023-08-11T11:25:34.173Z,23.25
2023-08-11T11:28:01.341Z,23.11
2023-08-11T11:30:28.630Z,23.22
2023-08-11T11:32:55.973Z,23.31
2023-08-11T11:35:24.746Z,23.59
2023-08-11T11:37:52.504Z,23.77
2023-08-11T11:40:19.629Z,23.86
2023-08-11T11:42:48.099Z,23.87
2023-08-11T11:45:15.936Z,23.85
2023-08-11T11:47:43.561Z,23.85
2023-08-11T11:50:10.992Z,23.94
2023-08-11T11:52:38.381Z,23.97
2023-08-11T11:55:07.469Z,24.10
2023-08-11T11:57:35.251Z,24.14
2023-08-11T12:00:04.648Z,24.07
2023-08-11T12:02:41.417Z,24.10
2023-08-11T12:05:09.513Z,24.16
2023-08-11T12:07:37.950Z,24.23
2023-08-11T12:10:06.949Z,24.30
2023-08-11T12:12:34.259Z,24.22
2023-08-11T12:15:06.390Z,24.15
2023-08-11T12:17:35.072Z,24.00
2023-08-11T12:20:09.301Z,24.02
2023-08-11T12:22:36.748Z,24.00
2023-08-11T12:25:04.536Z,24.05
2023-08-11T12:27:31.660Z,24.23
2023-08-11T12:29:58.792Z,24.33
2023-08-11T12:32:26.272Z,24.20
2023-08-11T12:34:53.430Z,24.14
2023-08-11T12:37:20.468Z,24.16
2023-08-11T12:39:47.610Z,24.30
2023-08-11T12:42:14.729Z,24.27
2023-08-11T12:44:42.469Z,24.22
2023-08-11T12:47:09.578Z,24.30
2023-08-11T12:49:36.581Z,24.33
2023-08-11T12:52:04.866Z,24.35
2023-08-11T12:54:32.053Z,24.25
2023-08-11T12:56:59.276Z,24.29
2023-08-11T12:59:26.460Z,24.25
2023-08-11T13:01:54.974Z,24.57
2023-08-11T13:04:22.161Z,24.68
2023-08-11T13:06:49.322Z,24.79
2023-08-11T13:09:16.788Z,24.98
2023-08-11T13:11:44.935Z,25.04
2023-08-11T13:14:12.139Z,25.18
2023-08-11T13:16:39.452Z,25.24
2023-08-11T13:19:06.825Z,25.36
2023-08-11T13:21:34.238Z,25.18
2023-08-11T13:24:02.082Z,25.09
2023-08-11T13:26:29.711Z,24.95
2023-08-11T13:28:58.609Z,24.91
2023-08-11T13:31:26.532Z,25.00
2023-08-11T13:33:53.701Z,25.13
2023-08-11T13:36:21.840Z,25.35
2023-08-11T13:38:49.080Z,25.32
2023-08-11T13:41:16.361Z,25.40
2023-08-11T13:43:43.462Z,25.42
2023-08-11T13:46:10.705Z,25.34
2023-08-11T13:48:38.019Z,25.39
2023-08-11T13:51:05.462Z,25.46
2023-08-11T13:53:32.842Z,25.53
2023-08-11T13:56:00.027Z,25.60
2023-08-11T13:58:27.450Z,25.57
2023-08-11T14:00:54.684Z,25.35
2023-08-11T14:03:22.022Z,25.33
2023-08-11T14:05:49.319Z,25.36
2023-08-11T14:08:16.518Z,25.42
2023-08-11T14:10:43.646Z,25.50
2023-08-11T14:13:11.827Z,25.61
2023-08-11T14:15:39.589Z,25.65
2023-08-11T14:18:07.682Z,25.69
2023-08-11T14:20:35.034Z,25.75
2023-08-11T14:23:02.189Z,25.88
2023-08-11T14:25:29.395Z,25.80
2023-08-11T14:27:56.908Z,25.62
2023-08-11T14:30:24.113Z,25.67
2023-08-11T14:32:51.191Z,25.58
2023-08-11T14:35:18.438Z,25.53
2023-08-11T14:37:45.561Z,25.64
2023-08-11T14:40:12.793Z,25.67
2023-08-11T14:42:39.973Z,25.84
2023-08-11T14:45:07.770Z,25.98
2023-08-11T14:47:35.054Z,26.10
2023-08-11T14:50:02.242Z,26.03
2023-08-11T14:52:29.371Z,25.97
2023-08-11T14:54:56.621Z,25.98
2023-08-11T14:57:24.572Z,26.06
2023-08-11T14:59:51.666Z,26.16
2023-08-11T15:02:18.966Z,25.96
2023-08-11T15:04:46.134Z,25.87
2023-08-11T15:07:13.307Z,25.88
2023-08-11T15:09:40.759Z,25.73
2023-08-11T15:12:08.574Z,25.69
2023-08-11T15:14:36.174Z,25.79
2023-08-11T15:17:03.484Z,25.83
2023-08-11T15:19:33.559Z,25.88
2023-08-11T15:22:00.736Z,25.86
2023-08-11T15:24:27.856Z,25.87
2023-08-11T15:26:55.128Z,26.11
2023-08-11T15:29:22.559Z,26.27
2023-08-11T15:31:51.621Z,26.29
2023-08-11T15:34:20.699Z,26.29
2023-08-11T15:36:47.848Z,26.26
2023-08-11T15:39:14.968Z,26.32
2023-08-11T15:41:42.427Z,26.13
2023-08-11T15:44:09.586Z,26.19
2023-08-11T15:46:36.831Z,26.06
2023-08-11T15:49:04.230Z,26.07
2023-08-11T15:51:31.426Z,25.97
2023-08-11T15:53:58.547Z,25.95
2023-08-11T15:56:25.780Z,25.94
2023-08-11T15:58:56.729Z,26.02
2023-08-11T16:01:24.665Z,25.84
2023-08-11T16:03:51.966Z,25.70
2023-08-11T16:06:19.206Z,25.91
2023-08-11T16:08:46.378Z,25.84
2023-08-11T16:11:13.533Z,26.01
2023-08-11T16:13:42.549Z,26.03
2023-08-11T16:16:10.240Z,25.98
2023-08-11T16:18:41.439Z,26.07
2023-08-11T16:21:08.710Z,26.01
2023-08-11T16:23:36.602Z,25.95
2023-08-11T16:26:03.844Z,25.88
2023-08-11T16:28:31.320Z,25.94
2023-08-11T16:30:59.476Z,26.01
2023-08-11T16:33:26.639Z,26.02
2023-08-11T16:35:53.915Z,25.94
2023-08-11T16:38:21.101Z,25.89
2023-08-11T16:40:48.211Z,25.74
2023-08-11T16:43:15.386Z,25.48
2023-08-11T16:45:42.653Z,25.52
2023-08-11T16:48:09.828Z,25.50
2023-08-11T16:50:38.544Z,25.40
2023-08-11T16:53:05.893Z,25.43
2023-08-11T16:55:33.019Z,25.45
2023-08-11T16:58:00.464Z,25.29
2023-08-11T17:00:28.001Z,25.10
2023-08-11T17:02:55.158Z,24.98
2023-08-11T17:05:22.420Z,24.96
2023-08-11T17:07:49.867Z,24.84
2023-08-11T17:10:17.118Z,24.69
2023-08-11T17:12:44.314Z,24.63
2023-08-11T17:15:11.840Z,24.60
2023-08-11T17:17:38.874Z,24.52
2023-08-11T17:20:08.833Z,24.52
2023-08-11T17:22:35.962Z,24.45
2023-08-11T17:25:03.586Z,24.49
2023-08-11T17:27:30.820Z,24.33
2023-08-11T17:29:58.002Z,24.19
2023-08-11T17:32:25.105Z,24.05
2023-08-11T17:34:57.919Z,24.01
2023-08-11T17:37:25.696Z,23.93
2023-08-11T17:39:53.051Z,23.85
2023-08-11T17:42:20.225Z,23.87
2023-08-11T17:44:47.349Z,23.83
2023-08-11T17:47:14.985Z,23.70
2023-08-11T17:49:42.036Z,23.55
2023-08-11T17:52:09.469Z,23.39
2023-08-11T17:54:37.993Z,23.29
2023-08-11T17:57:05.220Z,23.21
2023-08-11T17:59:32.372Z,23.26
2023-08-11T18:01:59.548Z,23.14
2023-08-11T18:04:27.162Z,23.11
2023-08-11T18:06:54.261Z,22.91
2023-08-11T18:09:21.289Z,22.80
2023-08-11T18:11:48.488Z,22.69
2023-08-11T18:14:15.715Z,22.64
2023-08-11T18:16:42.942Z,22.63
2023-08-11T18:19:10.686Z,22.52
2023-08-11T18:21:37.720Z,22.34
2023-08-11T18:24:05.285Z,22.20
2023-08-11T18:26:35.846Z,22.18
2023-08-11T18:29:03.538Z,22.10
2023-08-11T18:31:30.713Z,22.04
2023-08-11T18:34:01.134Z,21.98
2023-08-11T18:36:29.712Z,21.98
2023-08-11T18:38:57.093Z,21.87
2023-08-11T18:41:24.206Z,21.92
2023-08-11T18:43:51.479Z,21.86
2023-08-11T18:46:18.649Z,21.83
2023-08-11T18:48:49.099Z,21.91
2023-08-11T18:51:16.488Z,21.90
2023-08-11T18:53:43.600Z,21.84
2023-08-11T18:56:10.794Z,21.82
2023-08-11T18:58:37.902Z,21.82
2023-08-11T19:01:06.265Z,21.80
2023-08-11T19:03:33.793Z,21.89
2023-08-11T19:06:01.697Z,21.96
2023-08-11T19:08:28.754Z,21.99
2023-08-11T19:10:55.908Z,21.97
2023-08-11T19:13:23.255Z,21.92
2023-08-11T19:15:50.772Z,21.96
2023-08-11T19:18:18.391Z,21.93
2023-08-11T19:20:47.710Z,21.92
2023-08-11T19:23:14.958Z,21.85
2023-08-11T19:25:42.369Z,21.88
2023-08-11T19:28:11.988Z,21.89
2023-08-11T19:30:39.126Z,21.70
2023-08-11T19:33:06.370Z,21.61
2023-08-11T19:35:33.686Z,21.70
2023-08-11T19:38:00.911Z,21.39
2023-08-11T19:40:28.435Z,21.25
2023-08-11T19:42:55.719Z,21.27
2023-08-11T19:45:22.835Z,21.26
2023-08-11T19:47:51.305Z,21.26
2023-08-11T19:50:18.842Z,21.23
2023-08-11T19:52:46.007Z,21.17
2023-08-11T19:55:13.269Z,21.11
2023-08-11T19:57:40.411Z,21.04
2023-08-11T20:00:09.973Z,20.96
2023-08-11T20:02:43.077Z,20.99
2023-08-11T20:05:10.397Z,20.94
2023-08-11T20:07:38.215Z,20.90
2023-08-11T20:10:05.510Z,20.88
2023-08-11T20:12:32.794Z,20.68
2023-08-11T20:14:59.925Z,20.69
2023-08-11T20:17:27.265Z,20.67
2023-08-11T20:19:55.330Z,20.63
2023-08-11T20:22:22.449Z,20.52
2023-08-11T20:24:49.604Z,20.49
2023-08-11T20:27:16.990Z,20.52
2023-08-11T20:32:11.238Z,20.44
2023-08-11T20:34:38.499Z,20.48
2023-08-11T20:37:05.851Z,20.47
2023-08-11T20:39:32.999Z,20.54
2023-08-11T20:42:00.397Z,20.55
2023-08-11T20:44:27.632Z,20.56
2023-08-11T20:46:55.588Z,20.55
2023-08-11T20:49:22.889Z,20.51
2023-08-11T20:51:50.102Z,20.48
2023-08-11T20:54:17.336Z,20.38
2023-08-11T20:56:44.531Z,20.41
2023-08-11T20:59:11.663Z,20.40
2023-08-11T21:01:39.028Z,20.25
2023-08-11T21:04:06.471Z,20.23
2023-08-11T21:06:33.654Z,20.13
2023-08-11T21:09:00.775Z,20.16
2023-08-11T21:11:27.983Z,20.17
2023-08-11T21:13:55.839Z,20.25
2023-08-11T21:16:23.007Z,20.27
2023-08-11T21:18:51.429Z,20.13
2023-08-11T21:21:20.009Z,20.12
2023-08-11T21:23:47.181Z,20.01
2023-08-11T21:26:14.342Z,20.04
2023-08-11T21:28:41.498Z,19.93
2023-08-11T21:31:17.723Z,19.85
2023-08-11T21:34:06.118Z,19.70
2023-08-11T21:36:34.576Z,19.76
2023-08-11T21:39:04.695Z,19.61
2023-08-11T21:41:32.705Z,19.49
2023-08-11T21:44:01.920Z,19.55
2023-08-11T21:46:29.905Z,19.64
2023-08-11T21:48:57.151Z,19.54
2023-08-11T21:51:24.362Z,19.44
2023-08-11T21:53:51.510Z,19.27
2023-08-11T21:56:18.932Z,19.16
2023-08-11T21:58:46.128Z,19.29
2023-08-11T22:01:13.350Z,19.22
2023-08-11T22:03:40.599Z,19.20
2023-08-11T22:06:07.783Z,19.04
2023-08-11T22:08:35.009Z,18.99
2023-08-11T22:11:02.152Z,18.97
2023-08-11T22:13:29.370Z,18.98
2023-08-11T22:15:56.548Z,18.83
2023-08-11T22:18:23.724Z,18.81
2023-08-11T22:20:50.832Z,18.79
2023-08-11T22:23:18.031Z,18.62
2023-08-11T22:25:45.182Z,18.44
2023-08-11T22:28:12.300Z,18.36
2023-08-11T22:30:39.948Z,18.40
2023-08-11T22:33:07.378Z,18.31
2023-08-11T22:35:34.578Z,18.31
2023-08-11T22:38:01.724Z,18.32
2023-08-11T22:40:29.049Z,18.30
2023-08-11T22:42:56.151Z,18.25
2023-08-11T22:45:23.321Z,18.17
2023-08-11T22:47:51.150Z,18.21
2023-08-11T22:50:18.195Z,18.18
2023-08-11T22:52:46.070Z,18.06
2023-08-11T22:55:13.219Z,18.04
2023-08-11T22:57:40.679Z,18.03
2023-08-11T23:00:11.254Z,18.07
2023-08-11T23:02:38.517Z,17.98
2023-08-11T23:05:07.440Z,17.89
2023-08-11T23:07:34.678Z,17.86
2023-08-11T23:10:01.896Z,17.90
2023-08-11T23:12:30.755Z,17.82
2023-08-11T23:14:57.926Z,17.71
2023-08-11T23:17:25.176Z,17.71
2023-08-11T23:19:53.756Z,17.72
2023-08-11T23:22:20.966Z,17.69
2023-08-11T23:24:48.076Z,17.60
2023-08-11T23:27:18.226Z,17.57
2023-08-11T23:29:45.530Z,17.53
2023-08-11T23:32:12.811Z,17.45
2023-08-11T23:34:39.961Z,17.47
2023-08-11T23:37:07.174Z,17.47
2023-08-11T23:39:34.742Z,17.38
2023-08-11T23:42:01.909Z,17.35
2023-08-11T23:44:29.012Z,17.31
2023-08-11T23:46:56.187Z,17.42
2023-08-11T23:49:23.326Z,17.38
2023-08-11T23:51:50.466Z,17.31
2023-08-11T23:54:17.944Z,17.34
2023-08-11T23:56:45.469Z,17.27
2023-08-11T23:59:12.589Z,17.29
